createdAt,value
2023-04-08T00:01:06.765Z,11.38
2023-04-08T00:03:33.942Z,10.63
2023-04-08T00:06:02.639Z,12.68
2023-04-08T00:08:29.827Z,8.63
2023-04-08T00:10:56.778Z,11.93
2023-04-08T00:13:23.681Z,14.32
2023-04-08T00:15:50.766Z,11.70
2023-04-08T00:18:17.798Z,11.82
2023-04-08T00:20:44.962Z,9.75
2023-04-08T00:23:11.936Z,9.63
2023-04-08T00:25:38.874Z,9.63
2023-04-08T00:28:05.942Z,8.60
2023-04-08T00:30:33.039Z,6.07
2023-04-08T00:33:00.312Z,10.60
2023-04-08T00:35:29.003Z,7.80
2023-04-08T00:37:56.011Z,14.05
2023-04-08T00:40:22.875Z,7.28
2023-04-08T00:42:49.857Z,11.25
2023-04-08T00:45:16.673Z,6.90
2023-04-08T00:47:44.009Z,4.95
2023-04-08T00:50:11.425Z,4.88
2023-04-08T00:52:38.570Z,6.72
2023-04-08T00:55:06.192Z,3.03
2023-04-08T00:57:34.128Z,4.50
2023-04-08T01:00:01.294Z,3.28
2023-04-08T01:02:38.304Z,2.78
2023-04-08T01:05:08.194Z,4.43
2023-04-08T01:07:44.705Z,3.78
2023-04-08T01:10:25.595Z,5.60
2023-04-08T01:12:56.981Z,5.43
2023-04-08T01:15:26.758Z,3.17
2023-04-08T01:17:56.219Z,4.90
2023-04-08T01:20:25.945Z,2.67
2023-04-08T01:23:01.873Z,4.05
2023-04-08T01:25:34.255Z,6.22
2023-04-08T01:28:07.615Z,3.78
2023-04-08T01:30:35.801Z,3.90
2023-04-08T01:33:03.773Z,4.32
2023-04-08T01:35:32.305Z,5.80
2023-04-08T01:38:00.906Z,2.97
2023-04-08T01:40:28.069Z,2.30
2023-04-08T01:42:57.644Z,1.38
2023-04-08T01:45:25.297Z,3.75
2023-04-08T01:47:53.501Z,5.15
2023-04-08T01:50:22.344Z,2.33
2023-04-08T01:52:53.680Z,2.22
2023-04-08T01:55:21.376Z,2.97
2023-04-08T01:57:54.312Z,2.90
2023-04-08T02:00:24.841Z,3.30
2023-04-08T02:02:53.136Z,2.15
2023-04-08T02:05:20.785Z,2.67
2023-04-08T02:07:48.686Z,7.43
2023-04-08T02:10:16.235Z,4.07
2023-04-08T02:12:44.431Z,3.00
2023-04-08T02:15:12.459Z,2.00
2023-04-08T02:17:50.595Z,4.55
2023-04-08T02:20:34.814Z,3.97
2023-04-08T02:23:16.511Z,3.45
2023-04-08T02:25:47.004Z,8.75
2023-04-08T02:28:17.818Z,6.32
2023-04-08T02:30:50.466Z,8.27
2023-04-08T02:33:21.334Z,4.63
2023-04-08T02:35:50.492Z,5.07
2023-04-08T02:38:17.615Z,3.50
2023-04-08T02:40:44.537Z,2.47
2023-04-08T02:43:11.371Z,4.72
2023-04-08T02:45:42.884Z,3.63
2023-04-08T02:48:10.588Z,9.43
2023-04-08T02:50:37.605Z,6.82
2023-04-08T02:53:04.777Z,7.10
2023-04-08T02:55:33.586Z,5.03
2023-04-08T02:58:00.558Z,2.25
2023-04-08T03:00:27.468Z,5.90
2023-04-08T03:02:54.821Z,6.72
2023-04-08T03:05:21.936Z,4.78
2023-04-08T03:07:48.970Z,4.57
2023-04-08T03:10:16.208Z,5.30
2023-04-08T03:12:43.160Z,3.75
2023-04-08T03:15:10.360Z,7.88
2023-04-08T03:17:37.366Z,4.85
2023-04-08T03:20:05.152Z,2.17
2023-04-08T03:22:33.183Z,3.00
2023-04-08T03:25:00.268Z,4.70
2023-04-08T03:27:27.231Z,3.05
2023-04-08T03:29:54.234Z,3.75
2023-04-08T03:32:21.343Z,2.78
2023-04-08T03:34:51.039Z,4.40
2023-04-08T03:37:18.555Z,6.25
2023-04-08T03:39:46.175Z,4.57
2023-04-08T03:42:13.243Z,4.57
2023-04-08T03:44:40.248Z,6.18
2023-04-08T03:47:07.194Z,8.27
2023-04-08T03:49:34.010Z,3.75
2023-04-08T03:52:00.894Z,8.57
2023-04-08T03:54:27.745Z,4.97
2023-04-08T03:56:55.319Z,2.65
2023-04-08T03:59:22.176Z,5.30
2023-04-08T04:01:49.406Z,3.28
2023-04-08T04:04:16.475Z,6.20
2023-04-08T04:06:43.533Z,4.25
2023-04-08T04:09:11.238Z,7.95
2023-04-08T04:11:38.206Z,4.07
2023-04-08T04:14:05.059Z,5.93
2023-04-08T04:16:33.159Z,4.97
2023-04-08T04:19:00.386Z,6.85
2023-04-08T04:21:27.480Z,6.70
2023-04-08T04:23:54.481Z,6.47
2023-04-08T04:26:21.585Z,4.47
2023-04-08T04:28:48.927Z,6.00
2023-04-08T04:31:21.807Z,4.07
2023-04-08T04:33:49.429Z,6.00
2023-04-08T04:36:16.432Z,5.38
2023-04-08T04:38:44.211Z,6.15
2023-04-08T04:41:11.057Z,3.70
2023-04-08T04:43:38.299Z,4.03
2023-04-08T04:46:08.840Z,5.45
2023-04-08T04:48:36.429Z,3.58
2023-04-08T04:51:03.722Z,6.20
2023-04-08T04:53:31.866Z,7.20
2023-04-08T04:56:01.280Z,4.00
2023-04-08T04:58:28.704Z,5.47
2023-04-08T05:00:56.102Z,6.10
2023-04-08T05:03:23.227Z,4.75
2023-04-08T05:05:54.020Z,8.07
2023-04-08T05:08:22.007Z,6.78
2023-04-08T05:10:50.821Z,9.40
2023-04-08T05:13:18.555Z,7.00
2023-04-08T05:15:46.064Z,7.60
2023-04-08T05:18:13.452Z,3.65
2023-04-08T05:20:40.366Z,4.13
2023-04-08T05:23:07.871Z,1.73
2023-04-08T05:25:34.837Z,4.72
2023-04-08T05:28:01.963Z,6.63
2023-04-08T05:30:29.082Z,4.35
2023-04-08T05:32:57.864Z,5.20
2023-04-08T05:35:27.026Z,4.18
2023-04-08T05:37:53.915Z,4.47
2023-04-08T05:40:21.251Z,4.97
2023-04-08T05:42:48.101Z,5.05
2023-04-08T05:45:15.350Z,4.55
2023-04-08T05:47:42.191Z,3.40
2023-04-08T05:50:09.631Z,8.68
2023-04-08T05:52:36.625Z,8.55
2023-04-08T05:55:03.756Z,3.35
2023-04-08T05:57:30.655Z,4.43
2023-04-08T05:59:57.802Z,6.60
2023-04-08T06:02:24.679Z,4.40
2023-04-08T06:04:51.693Z,6.60
2023-04-08T06:07:18.928Z,2.45
2023-04-08T06:09:45.984Z,3.13
2023-04-08T06:12:12.837Z,3.45
2023-04-08T06:14:40.024Z,5.50
2023-04-08T06:17:06.822Z,7.05
2023-04-08T06:19:33.828Z,3.70
2023-04-08T06:22:00.949Z,6.40
2023-04-08T06:24:29.470Z,6.80
2023-04-08T06:26:56.754Z,4.00
2023-04-08T06:29:24.161Z,7.72
2023-04-08T06:31:51.153Z,6.13
2023-04-08T06:34:18.286Z,7.72
2023-04-08T06:36:45.173Z,6.43
2023-04-08T06:39:12.096Z,5.10
2023-04-08T06:41:38.938Z,4.55
2023-04-08T06:44:19.919Z,6.53
2023-04-08T06:46:46.800Z,6.72
2023-04-08T06:49:13.642Z,6.13
2023-04-08T06:51:40.938Z,5.55
2023-04-08T06:54:10.093Z,9.18
2023-04-08T06:56:37.638Z,7.75
2023-04-08T06:59:07.524Z,7.45
2023-04-08T07:01:34.679Z,6.25
2023-04-08T07:04:02.447Z,6.43
2023-04-08T07:06:29.532Z,4.53
2023-04-08T07:08:56.386Z,9.75
2023-04-08T07:11:23.327Z,8.27
2023-04-08T07:13:50.804Z,4.05
2023-04-08T07:16:17.696Z,5.55
2023-04-08T07:18:44.590Z,10.35
2023-04-08T07:21:11.779Z,11.40
2023-04-08T07:23:38.582Z,8.45
2023-04-08T07:26:05.522Z,11.90
2023-04-08T07:28:32.638Z,9.05
2023-04-08T07:31:17.694Z,9.13
2023-04-08T07:33:45.517Z,8.67
2023-04-08T07:36:13.853Z,12.57
2023-04-08T07:38:40.967Z,9.18
2023-04-08T07:41:07.886Z,11.13
2023-04-08T07:43:37.010Z,9.02
2023-04-08T07:46:07.800Z,8.57
2023-04-08T07:48:35.536Z,7.43
2023-04-08T07:51:11.413Z,10.43
2023-04-08T07:53:39.517Z,8.30
2023-04-08T07:56:14.131Z,5.90
2023-04-08T07:58:41.533Z,6.75
2023-04-08T08:01:19.793Z,8.25
2023-04-08T08:03:48.179Z,10.82
2023-04-08T08:06:15.697Z,10.25
2023-04-08T08:08:42.686Z,11.68
2023-04-08T08:11:09.695Z,14.55
2023-04-08T08:13:36.970Z,9.43
2023-04-08T08:16:03.995Z,9.48
2023-04-08T08:18:31.300Z,9.35
2023-04-08T08:20:58.113Z,14.77
2023-04-08T08:23:25.550Z,13.85
2023-04-08T08:26:03.143Z,14.48
2023-04-08T08:28:30.164Z,12.25
2023-04-08T08:30:57.365Z,17.08
2023-04-08T08:33:25.471Z,12.70
2023-04-08T08:35:52.649Z,10.15
2023-04-08T08:38:19.878Z,15.02
2023-04-08T08:40:46.891Z,8.65
2023-04-08T08:43:14.412Z,9.27
2023-04-08T08:45:44.211Z,11.15
2023-04-08T08:48:11.410Z,13.55
2023-04-08T08:50:38.317Z,9.05
2023-04-08T08:53:05.258Z,10.95
2023-04-08T08:56:00.240Z,8.20
2023-04-08T08:58:26.125Z,10.77
2023-04-08T09:00:53.267Z,8.73
2023-04-08T09:03:21.666Z,4.60
2023-04-08T09:05:55.889Z,9.07
2023-04-08T09:08:32.026Z,7.47
2023-04-08T09:11:19.031Z,9.48
2023-04-08T09:13:46.839Z,13.65
2023-04-08T09:16:18.698Z,11.25
2023-04-08T09:18:48.687Z,8.15
2023-04-08T09:21:17.625Z,9.75
2023-04-08T09:23:52.720Z,8.43
2023-04-08T09:29:18.262Z,8.82
2023-04-08T09:31:56.596Z,8.43
2023-04-08T09:34:24.528Z,9.52
2023-04-08T09:36:52.710Z,8.55
2023-04-08T09:39:20.085Z,9.80
2023-04-08T09:41:50.721Z,10.65
2023-04-08T09:44:20.654Z,10.55
2023-04-08T09:46:50.817Z,6.78
2023-04-08T09:49:51.331Z,6.68
2023-04-08T09:52:18.199Z,12.00
2023-04-08T09:55:04.477Z,11.15
2023-04-08T09:57:44.086Z,9.65
2023-04-08T10:00:18.912Z,11.85
2023-04-08T10:03:15.932Z,9.60
2023-04-08T10:05:44.192Z,10.32
2023-04-08T10:08:11.584Z,13.18
2023-04-08T10:10:42.635Z,10.93
2023-04-08T10:13:09.969Z,13.57
2023-04-08T10:15:38.381Z,10.73
2023-04-08T10:18:05.764Z,9.32
2023-04-08T10:20:38.680Z,17.55
2023-04-08T10:23:09.628Z,16.40
2023-04-08T10:25:49.253Z,22.77
2023-04-08T10:28:18.936Z,25.35
2023-04-08T10:30:52.612Z,24.38
2023-04-08T10:33:34.984Z,27.52
2023-04-08T10:36:12.665Z,31.98
2023-04-08T10:38:42.308Z,25.13
2023-04-08T10:41:14.215Z,30.35
2023-04-08T10:43:41.441Z,26.63
2023-04-08T10:46:10.897Z,28.23
2023-04-08T10:48:37.813Z,33.05
2023-04-08T10:51:05.820Z,29.95
2023-04-08T10:53:34.701Z,32.63
2023-04-08T10:56:15.466Z,32.70
2023-04-08T10:58:54.438Z,37.10
2023-04-08T11:01:21.443Z,36.22
2023-04-08T11:03:49.227Z,38.35
2023-04-08T11:06:17.551Z,35.92
2023-04-08T11:08:44.889Z,33.60
2023-04-08T11:11:12.065Z,36.10
2023-04-08T11:13:52.806Z,38.08
2023-04-08T11:16:22.561Z,39.85
2023-04-08T11:18:51.522Z,41.28
2023-04-08T11:21:18.550Z,33.47
2023-04-08T11:23:45.672Z,32.78
2023-04-08T11:26:15.032Z,30.45
2023-04-08T11:28:42.072Z,32.00
2023-04-08T11:31:09.597Z,30.45
2023-04-08T11:33:37.133Z,30.48
2023-04-08T11:36:08.552Z,34.03
2023-04-08T11:38:40.689Z,37.40
2023-04-08T11:41:08.035Z,38.95
2023-04-08T11:43:36.674Z,43.03
2023-04-08T11:46:13.305Z,40.65
2023-04-08T11:48:40.311Z,39.45
2023-04-08T11:51:12.500Z,33.65
2023-04-08T11:53:39.450Z,31.55
2023-04-08T11:56:26.733Z,30.05
2023-04-08T11:58:53.852Z,30.25
2023-04-08T12:01:21.597Z,32.70
2023-04-08T12:04:00.101Z,34.30
2023-04-08T12:06:29.135Z,32.72
2023-04-08T12:08:56.782Z,37.40
2023-04-08T12:11:24.362Z,37.42
2023-04-08T12:13:52.780Z,38.67
2023-04-08T12:16:20.704Z,31.27
2023-04-08T12:18:47.990Z,32.80
2023-04-08T12:21:14.944Z,35.58
2023-04-08T12:23:41.931Z,28.08
2023-04-08T12:26:09.358Z,30.42
2023-04-08T12:28:36.374Z,28.35
2023-04-08T12:31:03.757Z,33.78
2023-04-08T12:33:31.349Z,34.28
2023-04-08T12:35:59.360Z,31.63
2023-04-08T12:38:27.070Z,31.88
2023-04-08T12:40:54.539Z,30.77
2023-04-08T12:43:22.071Z,32.38
2023-04-08T12:45:49.399Z,34.35
2023-04-08T12:48:16.543Z,30.98
2023-04-08T12:50:43.465Z,39.55
2023-04-08T12:53:11.154Z,33.80
2023-04-08T12:55:38.204Z,35.17
2023-04-08T12:58:06.074Z,39.10
2023-04-08T13:00:33.331Z,40.90
2023-04-08T13:03:00.595Z,40.45
2023-04-08T13:05:42.008Z,33.92
2023-04-08T13:08:12.416Z,33.60
2023-04-08T13:10:39.589Z,39.17
2023-04-08T13:13:06.761Z,31.23
2023-04-08T13:15:33.768Z,34.72
2023-04-08T13:18:00.976Z,28.40
2023-04-08T13:20:28.166Z,29.15
2023-04-08T13:22:55.235Z,25.30
2023-04-08T13:25:22.206Z,29.27
2023-04-08T13:27:49.179Z,31.08
2023-04-08T13:30:16.851Z,32.72
2023-04-08T13:32:44.062Z,29.25
2023-04-08T13:35:11.443Z,35.17
2023-04-08T13:37:38.518Z,28.50
2023-04-08T13:40:06.271Z,32.45
2023-04-08T13:42:33.361Z,31.38
2023-04-08T13:45:00.568Z,33.47
2023-04-08T13:47:28.167Z,29.92
2023-04-08T13:49:55.041Z,30.30
2023-04-08T13:52:22.005Z,33.83
2023-04-08T13:54:48.818Z,32.08
2023-04-08T13:57:15.708Z,34.83
2023-04-08T13:59:44.773Z,29.25
2023-04-08T14:02:12.932Z,30.73
2023-04-08T14:04:40.064Z,30.05
2023-04-08T14:07:07.212Z,30.77
2023-04-08T14:09:34.052Z,33.85
2023-04-08T14:12:01.133Z,25.02
2023-04-08T14:14:28.085Z,26.48
2023-04-08T14:16:55.075Z,23.88
2023-04-08T14:19:21.932Z,25.35
2023-04-08T14:21:48.978Z,26.33
2023-04-08T14:24:16.126Z,27.25
2023-04-08T14:26:43.326Z,31.52
2023-04-08T14:29:10.701Z,29.48
2023-04-08T14:31:37.791Z,25.58
2023-04-08T14:34:05.100Z,24.95
2023-04-08T14:36:32.990Z,29.65
2023-04-08T14:39:00.240Z,22.60
2023-04-08T14:41:27.422Z,26.25
2023-04-08T14:43:54.644Z,25.80
2023-04-08T14:46:21.837Z,24.33
2023-04-08T14:48:49.115Z,21.42
2023-04-08T14:51:16.424Z,22.05
2023-04-08T14:53:43.306Z,23.15
2023-04-08T14:56:10.409Z,17.88
2023-04-08T14:58:37.433Z,19.02
2023-04-08T15:01:04.651Z,18.08
2023-04-08T15:03:31.728Z,19.38
2023-04-08T15:05:59.633Z,18.02
2023-04-08T15:08:26.590Z,16.55
2023-04-08T15:10:53.801Z,15.77
2023-04-08T15:13:20.813Z,14.70
2023-04-08T15:15:47.814Z,14.52
2023-04-08T15:18:14.699Z,15.82
2023-04-08T15:20:41.924Z,17.75
2023-04-08T15:23:08.945Z,14.73
2023-04-08T15:25:35.857Z,17.55
2023-04-08T15:28:02.813Z,18.40
2023-04-08T15:30:35.159Z,15.68
2023-04-08T15:33:05.836Z,18.48
2023-04-08T15:35:33.597Z,17.65
2023-04-08T15:38:00.840Z,17.15
2023-04-08T15:40:28.180Z,19.17
2023-04-08T15:42:55.941Z,19.92
2023-04-08T15:45:23.006Z,21.33
2023-04-08T15:47:50.036Z,23.02
2023-04-08T15:50:17.593Z,18.52
2023-04-08T15:52:44.900Z,17.23
2023-04-08T15:55:12.090Z,19.85
2023-04-08T15:57:39.171Z,20.02
2023-04-08T16:00:10.864Z,22.42
2023-04-08T16:02:40.900Z,20.27
2023-04-08T16:05:09.139Z,20.02
2023-04-08T16:07:36.245Z,20.33
2023-04-08T16:10:03.300Z,28.27
2023-04-08T16:12:30.400Z,27.67
2023-04-08T16:14:57.374Z,24.55
2023-04-08T16:17:24.316Z,20.60
2023-04-08T16:19:52.333Z,25.75
2023-04-08T16:22:19.672Z,29.70
2023-04-08T16:24:46.661Z,28.75
2023-04-08T16:27:13.550Z,35.50
2023-04-08T16:29:40.635Z,25.23
2023-04-08T16:32:08.850Z,30.30
2023-04-08T16:34:36.134Z,27.27
2023-04-08T16:37:03.075Z,28.85
2023-04-08T16:39:30.055Z,42.05
2023-04-08T16:41:57.200Z,55.55
2023-04-08T16:44:24.193Z,47.97
2023-04-08T16:46:51.374Z,38.22
2023-04-08T16:49:18.513Z,57.10
2023-04-08T16:51:45.538Z,37.30
2023-04-08T16:54:12.771Z,42.53
2023-04-08T16:56:44.404Z,40.97
2023-04-08T16:59:12.614Z,42.22
2023-04-08T17:01:39.538Z,51.17
2023-04-08T17:04:06.765Z,46.03
2023-04-08T17:06:35.817Z,48.05
2023-04-08T17:09:04.070Z,45.40
2023-04-08T17:11:31.231Z,55.42
2023-04-08T17:13:58.267Z,67.28
2023-04-08T17:16:25.395Z,58.60
2023-04-08T17:18:52.558Z,56.30
2023-04-08T17:21:20.280Z,56.58
2023-04-08T17:23:47.387Z,56.78
2023-04-08T17:26:14.605Z,52.88
2023-04-08T17:28:41.846Z,55.70
2023-04-08T17:31:09.767Z,53.28
2023-04-08T17:33:36.856Z,57.72
2023-04-08T17:36:03.951Z,63.97
2023-04-08T17:38:31.039Z,67.45
2023-04-08T17:40:57.962Z,75.75
2023-04-08T17:43:25.089Z,73.07
2023-04-08T17:45:51.988Z,80.95
2023-04-08T17:48:18.936Z,83.22
2023-04-08T17:50:45.965Z,92.20
2023-04-08T17:53:12.887Z,92.65
2023-04-08T17:55:39.757Z,92.95
2023-04-08T17:58:06.763Z,111.60
2023-04-08T18:00:33.641Z,114.78
2023-04-08T18:03:00.811Z,124.50
2023-04-08T18:05:29.008Z,122.65
2023-04-08T18:07:56.077Z,112.80
2023-04-08T18:10:24.581Z,118.22
2023-04-08T18:13:00.568Z,115.22
2023-04-08T18:15:38.034Z,119.63
2023-04-08T18:18:05.122Z,120.43
2023-04-08T18:20:36.522Z,122.50
2023-04-08T18:23:04.481Z,112.53
2023-04-08T18:25:32.286Z,110.47
2023-04-08T18:27:59.563Z,109.93
2023-04-08T18:30:26.722Z,103.30
2023-04-08T18:32:53.762Z,106.15
2023-04-08T18:35:21.099Z,98.70
2023-04-08T18:37:48.152Z,90.28
2023-04-08T18:40:15.468Z,97.18
2023-04-08T18:42:42.485Z,99.65
2023-04-08T18:45:09.662Z,100.68
2023-04-08T18:47:37.553Z,101.80
2023-04-08T18:50:04.661Z,108.53
2023-04-08T18:52:32.303Z,100.28
2023-04-08T18:55:02.609Z,101.82
2023-04-08T18:57:29.729Z,102.15
2023-04-08T18:59:56.574Z,104.00
2023-04-08T19:02:23.626Z,106.70
2023-04-08T19:04:50.662Z,105.97
2023-04-08T19:07:17.875Z,100.00
2023-04-08T19:09:44.802Z,97.13
2023-04-08T19:12:11.769Z,102.63
2023-04-08T19:14:39.626Z,94.47
2023-04-08T19:17:06.708Z,88.75
2023-04-08T19:19:33.501Z,85.43
2023-04-08T19:22:02.804Z,76.93
2023-04-08T19:24:29.672Z,80.88
2023-04-08T19:26:56.566Z,76.15
2023-04-08T19:29:24.451Z,77.05
2023-04-08T19:31:51.431Z,78.97
2023-04-08T19:34:18.240Z,76.90
2023-04-08T19:36:45.774Z,77.63
2023-04-08T19:39:12.571Z,76.82
2023-04-08T19:41:39.569Z,71.47
2023-04-08T19:44:06.718Z,73.18
2023-04-08T19:46:33.997Z,72.47
2023-04-08T19:49:01.478Z,77.55
2023-04-08T19:51:29.350Z,77.43
2023-04-08T19:53:56.313Z,75.05
2023-04-08T19:56:23.238Z,82.95
2023-04-08T19:58:50.360Z,71.90
2023-04-08T20:01:17.737Z,77.22
2023-04-08T20:03:52.323Z,79.45
2023-04-08T20:06:20.157Z,78.35
2023-04-08T20:08:47.053Z,77.72
2023-04-08T20:11:14.001Z,85.53
2023-04-08T20:13:40.953Z,85.40
2023-04-08T20:16:07.898Z,85.80
2023-04-08T20:18:34.895Z,85.82
2023-04-08T20:21:01.859Z,87.18
2023-04-08T20:23:28.839Z,85.78
2023-04-08T20:25:56.668Z,95.50
2023-04-08T20:28:23.724Z,94.70
2023-04-08T20:30:51.669Z,95.47
2023-04-08T20:33:19.240Z,96.00
2023-04-08T20:35:47.607Z,95.95
2023-04-08T20:38:14.674Z,96.53
2023-04-08T20:40:45.557Z,97.60
2023-04-08T20:43:12.510Z,88.95
2023-04-08T20:45:39.421Z,89.70
2023-04-08T20:48:07.497Z,98.55
2023-04-08T20:50:34.850Z,90.00
2023-04-08T20:53:01.858Z,97.22
2023-04-08T20:55:28.732Z,93.05
2023-04-08T20:57:55.797Z,87.93
2023-04-08T21:00:22.741Z,89.25
2023-04-08T21:02:50.976Z,92.90
2023-04-08T21:05:17.944Z,93.63
2023-04-08T21:07:45.006Z,94.65
2023-04-08T21:10:14.817Z,97.60
2023-04-08T21:12:41.724Z,88.65
2023-04-08T21:15:09.259Z,99.57
2023-04-08T21:17:36.201Z,94.78
2023-04-08T21:20:04.401Z,96.45
2023-04-08T21:22:32.291Z,93.82
2023-04-08T21:24:59.252Z,91.78
2023-04-08T21:27:27.956Z,86.60
2023-04-08T21:29:54.868Z,89.10
2023-04-08T21:32:21.891Z,79.93
2023-04-08T21:34:48.755Z,76.13
2023-04-08T21:37:16.034Z,84.70
2023-04-08T21:39:43.165Z,79.82
2023-04-08T21:42:10.224Z,75.00
2023-04-08T21:44:37.071Z,81.88
2023-04-08T21:47:04.171Z,72.90
2023-04-08T21:49:31.521Z,79.72
2023-04-08T21:51:58.533Z,81.43
2023-04-08T21:54:25.593Z,71.60
2023-04-08T21:56:52.543Z,65.82
2023-04-08T21:59:19.991Z,61.63
2023-04-08T22:01:47.106Z,60.95
2023-04-08T22:04:14.161Z,55.28
2023-04-08T22:06:41.323Z,61.47
2023-04-08T22:09:08.308Z,54.30
2023-04-08T22:11:35.326Z,63.70
2023-04-08T22:14:02.188Z,60.97
2023-04-08T22:16:29.295Z,64.50
2023-04-08T22:18:56.355Z,61.72
2023-04-08T22:21:23.753Z,64.50
2023-04-08T22:23:50.779Z,65.43
2023-04-08T22:26:17.814Z,64.80
2023-04-08T22:28:44.701Z,66.60
2023-04-08T22:31:12.586Z,70.22
2023-04-08T22:33:39.869Z,70.38
2023-04-08T22:36:07.180Z,72.28
2023-04-08T22:38:34.132Z,76.18
2023-04-08T22:41:01.308Z,79.75
2023-04-08T22:43:28.247Z,75.35
2023-04-08T22:45:55.701Z,80.43
2023-04-08T22:48:22.619Z,81.03
2023-04-08T22:50:49.503Z,85.47
2023-04-08T22:53:16.344Z,86.70
2023-04-08T22:55:43.270Z,89.68
2023-04-08T22:58:10.404Z,90.07
2023-04-08T23:00:37.304Z,94.85
2023-04-08T23:03:04.901Z,94.05
2023-04-08T23:05:32.115Z,98.28
2023-04-08T23:07:59.068Z,101.15
2023-04-08T23:10:26.239Z,100.57
2023-04-08T23:12:53.065Z,107.20
2023-04-08T23:15:20.046Z,102.72
2023-04-08T23:17:46.922Z,99.20
2023-04-08T23:20:13.990Z,109.47
2023-04-08T23:22:40.986Z,110.68
2023-04-08T23:25:08.705Z,107.88
2023-04-08T23:27:35.773Z,90.72
2023-04-08T23:30:05.695Z,88.05
2023-04-08T23:32:34.032Z,98.18
2023-04-08T23:35:01.688Z,91.95
2023-04-08T23:37:30.184Z,94.43
2023-04-08T23:39:57.028Z,94.22
2023-04-08T23:42:27.210Z,91.85
2023-04-08T23:44:55.325Z,90.95
2023-04-08T23:47:22.427Z,98.68
2023-04-08T23:49:49.495Z,94.13
2023-04-08T23:52:16.404Z,91.20
2023-04-08T23:54:43.600Z,98.63
2023-04-08T23:57:10.595Z,100.53
2023-04-08T23:59:37.696Z,109.22
